createdAt,value
2023-03-23T15:58:13.902Z,20.10
2023-03-23T16:00:42.503Z,20.00
2023-03-23T16:03:16.210Z,20.00
2023-03-23T16:05:43.290Z,20.00
2023-03-23T16:08:12.433Z,19.90
2023-03-23T16:10:39.396Z,19.90
2023-03-23T16:13:07.216Z,19.80
2023-03-23T16:15:34.195Z,19.70
2023-03-23T16:18:01.183Z,19.70
2023-03-23T16:20:29.718Z,19.60
2023-03-23T16:22:56.742Z,19.50
2023-03-23T16:25:24.201Z,19.40
2023-03-23T16:27:52.603Z,19.30
2023-03-23T16:30:19.802Z,19.30
2023-03-23T16:32:47.258Z,19.20
2023-03-23T16:35:15.392Z,19.20
2023-03-23T16:37:47.579Z,19.10
2023-03-23T16:40:15.797Z,19.00
2023-03-23T16:42:43.448Z,19.00
2023-03-23T16:45:11.453Z,19.00
2023-03-23T16:47:39.418Z,18.80
2023-03-23T16:50:08.770Z,18.80
2023-03-23T16:52:35.799Z,18.80
2023-03-23T16:55:16.375Z,18.70
2023-03-23T16:57:43.595Z,18.60
2023-03-23T17:00:22.147Z,18.50
2023-03-23T17:02:56.685Z,18.40
2023-03-23T17:05:26.719Z,18.30
2023-03-23T17:07:55.981Z,18.30
2023-03-23T17:10:25.426Z,18.20
2023-03-23T17:12:52.916Z,18.10
2023-03-23T17:15:20.705Z,18.10
2023-03-23T17:17:48.241Z,18.00
2023-03-23T17:20:15.655Z,18.00
2023-03-23T17:22:42.657Z,17.90
2023-03-23T17:25:10.359Z,17.80
2023-03-23T17:27:38.188Z,17.70
2023-03-23T17:30:07.600Z,17.60
2023-03-23T17:32:35.034Z,17.50
2023-03-23T17:35:02.255Z,17.50
2023-03-23T17:37:32.882Z,17.40
2023-03-23T17:40:05.871Z,17.40
2023-03-23T17:42:35.991Z,17.40
2023-03-23T17:45:05.380Z,17.30
2023-03-23T17:47:33.604Z,17.20
2023-03-23T17:50:00.742Z,17.10
2023-03-23T17:52:43.653Z,16.90
2023-03-23T17:55:11.217Z,16.70
2023-03-23T17:57:39.073Z,16.60
2023-03-23T18:00:10.751Z,16.60
2023-03-23T18:02:38.651Z,16.40
2023-03-23T18:05:08.768Z,16.20
2023-03-23T18:07:36.979Z,16.00
2023-03-23T18:10:12.127Z,15.90
2023-03-23T18:12:42.509Z,15.80
2023-03-23T18:15:11.388Z,15.90
2023-03-23T18:17:39.207Z,15.90
2023-03-23T18:20:08.692Z,15.80
2023-03-23T18:22:36.633Z,15.80
2023-03-23T18:25:06.977Z,15.70
2023-03-23T18:27:36.187Z,15.60
2023-03-23T18:30:04.211Z,15.50
2023-03-23T18:32:32.627Z,15.30
2023-03-23T18:35:04.520Z,15.30
2023-03-23T18:37:32.241Z,15.30
2023-03-23T18:39:59.829Z,15.30
2023-03-23T18:42:27.225Z,15.20
2023-03-23T18:44:56.861Z,15.20
2023-03-23T18:47:24.697Z,15.00
2023-03-23T18:49:55.604Z,15.00
2023-03-23T18:52:26.275Z,14.90
2023-03-23T18:54:55.466Z,14.80
2023-03-23T18:57:24.092Z,14.70
2023-03-23T18:59:52.092Z,14.60
2023-03-23T19:02:20.681Z,14.50
2023-03-23T19:04:49.576Z,14.50
2023-03-23T19:07:18.754Z,14.40
2023-03-23T19:09:47.628Z,14.40
2023-03-23T19:12:16.383Z,14.40
2023-03-23T19:14:44.977Z,14.40
2023-03-23T19:17:15.137Z,14.40
2023-03-23T19:19:43.709Z,14.40
2023-03-23T19:22:12.953Z,14.30
2023-03-23T19:24:40.898Z,14.30
2023-03-23T19:27:09.391Z,14.30
2023-03-23T19:29:38.734Z,14.20
2023-03-23T19:32:07.017Z,14.20
2023-03-23T19:34:36.762Z,14.20
2023-03-23T19:37:08.798Z,14.20
2023-03-23T19:39:41.696Z,14.20
2023-03-23T19:42:13.448Z,14.20
2023-03-23T19:44:42.032Z,14.30
2023-03-23T19:47:12.913Z,14.30
2023-03-23T19:49:42.935Z,14.40
2023-03-23T19:52:14.067Z,14.40
2023-03-23T19:54:44.695Z,14.50
2023-03-23T19:57:12.445Z,14.50
2023-03-23T19:59:40.634Z,14.50
2023-03-23T20:02:08.841Z,14.50
2023-03-23T20:04:36.970Z,14.50
2023-03-23T20:07:07.630Z,14.50
2023-03-23T20:09:35.951Z,14.40
2023-03-23T20:12:07.123Z,14.40
2023-03-23T20:14:37.642Z,14.40
2023-03-23T20:17:06.056Z,14.30
2023-03-23T20:19:36.551Z,14.30
2023-03-23T20:22:07.173Z,14.20
2023-03-23T20:24:35.434Z,14.20
2023-03-23T20:27:04.765Z,14.20
2023-03-23T20:29:34.995Z,14.20
2023-03-23T20:32:03.176Z,14.10
2023-03-23T20:34:31.839Z,14.00
2023-03-23T20:37:02.602Z,14.00
2023-03-23T20:39:33.628Z,14.00
2023-03-23T20:42:04.961Z,13.90
2023-03-23T20:44:36.450Z,13.90
2023-03-23T20:47:07.032Z,13.80
2023-03-23T20:49:37.648Z,13.80
2023-03-23T20:52:08.731Z,13.80
2023-03-23T20:54:38.506Z,13.70
2023-03-23T20:57:06.330Z,13.70
2023-03-23T20:59:34.726Z,13.70
2023-03-23T21:02:03.173Z,13.70
2023-03-23T21:04:30.902Z,13.70
2023-03-23T21:06:58.821Z,13.60
2023-03-23T21:09:26.058Z,13.60
2023-03-23T21:11:53.761Z,13.40
2023-03-23T21:14:21.708Z,13.30
2023-03-23T21:16:50.071Z,13.10
2023-03-23T21:19:17.315Z,13.00
2023-03-23T21:21:56.722Z,12.80
2023-03-23T21:24:29.916Z,12.80
2023-03-23T21:26:59.790Z,12.80
2023-03-23T21:29:28.083Z,12.70
2023-03-23T21:32:06.995Z,12.70
2023-03-23T21:34:36.827Z,12.60
2023-03-23T21:37:04.298Z,12.60
2023-03-23T21:39:31.726Z,12.60
2023-03-23T21:41:59.698Z,12.60
2023-03-23T21:44:26.774Z,12.50
2023-03-23T21:46:54.681Z,12.50
2023-03-23T21:49:21.992Z,12.50
2023-03-23T21:51:50.133Z,12.40
2023-03-23T21:54:17.432Z,12.20
2023-03-23T21:56:45.292Z,12.10
2023-03-23T21:59:12.298Z,12.00
2023-03-23T22:01:40.471Z,11.90
2023-03-23T22:04:08.486Z,11.90
2023-03-23T22:06:35.821Z,11.80
2023-03-23T22:09:05.511Z,11.70
2023-03-23T22:11:33.257Z,11.60
2023-03-23T22:14:01.162Z,11.50
2023-03-23T22:16:28.513Z,11.50
2023-03-23T22:18:58.083Z,11.50
2023-03-23T22:21:27.312Z,11.40
2023-03-23T22:23:56.980Z,11.30
2023-03-23T22:26:24.440Z,11.30
2023-03-23T22:28:52.117Z,11.30
2023-03-23T22:31:25.035Z,11.10
2023-03-23T22:33:56.503Z,11.10
2023-03-23T22:36:25.967Z,11.10
2023-03-23T22:38:55.294Z,11.00
2023-03-23T22:41:25.518Z,11.00
2023-03-23T22:43:52.851Z,10.90
2023-03-23T22:46:20.821Z,10.90
2023-03-23T22:48:47.966Z,10.80
2023-03-23T22:51:16.565Z,10.80
2023-03-23T22:53:44.106Z,10.70
2023-03-23T22:56:12.122Z,10.70
2023-03-23T22:58:39.565Z,10.60
2023-03-23T23:01:14.557Z,10.60
2023-03-23T23:03:42.162Z,10.60
2023-03-23T23:06:11.880Z,10.60
2023-03-23T23:08:39.258Z,10.60
2023-03-23T23:11:06.952Z,10.60
2023-03-23T23:13:34.069Z,10.60
2023-03-23T23:16:02.369Z,10.50
2023-03-23T23:18:31.065Z,10.50
2023-03-23T23:21:00.665Z,10.50
2023-03-23T23:23:28.639Z,10.50
2023-03-23T23:25:56.484Z,10.50
2023-03-23T23:28:25.627Z,10.40
2023-03-23T23:30:53.368Z,10.40
2023-03-23T23:33:20.764Z,10.40
2023-03-23T23:35:48.118Z,10.30
2023-03-23T23:38:16.190Z,10.30
2023-03-23T23:40:45.167Z,10.40
2023-03-23T23:43:14.433Z,10.40
2023-03-23T23:45:41.601Z,10.40
2023-03-23T23:48:09.050Z,10.40
2023-03-23T23:50:36.366Z,10.40
2023-03-23T23:53:04.676Z,10.30
2023-03-23T23:55:31.997Z,10.30
2023-03-23T23:57:58.989Z,10.30
